Stone, Idaho
Current Conditions -  °F | °C
As of 11:15 AM on Monday 22 Dec 2014 (Local Time) from KBMC Reporting Station
Overcast Overcast  
Wind Chill: 38°   Ceiling: 2900
Heat Index: 43°   Visibility: 10mi
Dew Point: 33°   Wind: 9mph
Humidity: 68%   Direction: 330°NNW
Pressure: 30.02"   Gusts: NA
Location:  42.04°N, 112.71°W
Report Text: KBMC 221815Z AUTO 33008KT 10SM BKN029 OVC042 06/01 A3002 RMK AO1 T00630008
Loading
Personal Weather Stations






























Interactive Weather Map New forecast layout! Learn more

10-Day Weather Forecast

Advertisements
Track Severe Weather on mobile